sensor_id;sensor_type;location;lat;lon;timestamp;P1;durP1;ratioP1;P2;durP2;ratioP2
11111;SDS011;5609;49.466;8.468;2023-07-30T00:00:15;2.40;;;1.70;;
11111;SDS011;5609;49.466;8.468;2023-07-30T00:02:42;2.23;;;1.70;;
11111;SDS011;5609;49.466;8.468;2023-07-30T00:05:10;2.10;;;1.67;;
11111;SDS011;5609;49.466;8.468;2023-07-30T00:07:37;2.43;;;1.93;;
11111;SDS011;5609;49.466;8.468;2023-07-30T00:10:05;1.63;;;1.53;;
11111;SDS011;5609;49.466;8.468;2023-07-30T00:12:32;1.77;;;1.67;;
11111;SDS011;5609;49.466;8.468;2023-07-30T00:14:59;2.13;;;1.90;;
11111;SDS011;5609;49.466;8.468;2023-07-30T00:17:26;1.93;;;1.60;;
11111;SDS011;5609;49.466;8.468;2023-07-30T00:19:53;1.83;;;1.70;;
11111;SDS011;5609;49.466;8.468;2023-07-30T00:22:21;1.83;;;1.60;;
11111;SDS011;5609;49.466;8.468;2023-07-30T00:24:48;1.70;;;1.60;;
11111;SDS011;5609;49.466;8.468;2023-07-30T00:27:15;1.90;;;1.80;;
11111;SDS011;5609;49.466;8.468;2023-07-30T00:29:42;2.53;;;1.60;;
11111;SDS011;5609;49.466;8.468;2023-07-30T00:32:09;1.67;;;1.57;;
11111;SDS011;5609;49.466;8.468;2023-07-30T00:34:40;3.23;;;1.87;;
11111;SDS011;5609;49.466;8.468;2023-07-30T00:37:07;1.50;;;1.40;;
11111;SDS011;5609;49.466;8.468;2023-07-30T00:39:36;2.00;;;1.60;;
11111;SDS011;5609;49.466;8.468;2023-07-30T00:42:03;1.63;;;1.53;;
11111;SDS011;5609;49.466;8.468;2023-07-30T00:44:30;2.27;;;1.53;;
11111;SDS011;5609;49.466;8.468;2023-07-30T00:46:57;2.70;;;1.50;;
11111;SDS011;5609;49.466;8.468;2023-07-30T00:49:24;2.70;;;1.80;;
11111;SDS011;5609;49.466;8.468;2023-07-30T00:51:51;2.00;;;1.67;;
11111;SDS011;5609;49.466;8.468;2023-07-30T00:54:21;1.80;;;1.70;;
11111;SDS011;5609;49.466;8.468;2023-07-30T00:56:50;2.43;;;1.80;;
11111;SDS011;5609;49.466;8.468;2023-07-30T00:59:17;1.93;;;1.50;;
11111;SDS011;5609;49.466;8.468;2023-07-30T01:01:44;1.70;;;1.60;;
11111;SDS011;5609;49.466;8.468;2023-07-30T01:04:13;1.60;;;1.50;;
11111;SDS011;5609;49.466;8.468;2023-07-30T01:06:40;3.43;;;1.60;;
11111;SDS011;5609;49.466;8.468;2023-07-30T01:09:07;2.27;;;1.47;;
11111;SDS011;5609;49.466;8.468;2023-07-30T01:11:34;1.57;;;1.47;;
11111;SDS011;5609;49.466;8.468;2023-07-30T01:14:03;2.17;;;1.53;;
11111;SDS011;5609;49.466;8.468;2023-07-30T01:16:30;1.70;;;1.60;;
11111;SDS011;5609;49.466;8.468;2023-07-30T01:18:57;2.23;;;1.30;;
11111;SDS011;5609;49.466;8.468;2023-07-30T01:21:30;2.03;;;1.70;;
11111;SDS011;5609;49.466;8.468;2023-07-30T01:23:57;2.90;;;1.70;;
11111;SDS011;5609;49.466;8.468;2023-07-30T01:26:24;1.40;;;1.30;;
11111;SDS011;5609;49.466;8.468;2023-07-30T01:28:54;2.07;;;1.40;;
11111;SDS011;5609;49.466;8.468;2023-07-30T01:31:21;2.87;;;1.63;;
11111;SDS011;5609;49.466;8.468;2023-07-30T01:33:51;2.10;;;1.43;;
11111;SDS011;5609;49.466;8.468;2023-07-30T01:36:19;2.60;;;1.50;;
11111;SDS011;5609;49.466;8.468;2023-07-30T01:38:47;2.63;;;1.67;;
11111;SDS011;5609;49.466;8.468;2023-07-30T01:41:15;2.67;;;1.50;;
11111;SDS011;5609;49.466;8.468;2023-07-30T01:43:42;2.10;;;1.60;;
11111;SDS011;5609;49.466;8.468;2023-07-30T01:46:09;3.20;;;1.50;;
11111;SDS011;5609;49.466;8.468;2023-07-30T01:48:35;1.60;;;1.50;;
11111;SDS011;5609;49.466;8.468;2023-07-30T01:51:02;1.70;;;1.57;;
11111;SDS011;5609;49.466;8.468;2023-07-30T01:53:29;1.70;;;1.60;;
11111;SDS011;5609;49.466;8.468;2023-07-30T01:55:58;3.07;;;1.70;;
11111;SDS011;5609;49.466;8.468;2023-07-30T01:58:25;1.70;;;1.60;;
11111;SDS011;5609;49.466;8.468;2023-07-30T02:00:52;1.70;;;1.60;;
11111;SDS011;5609;49.466;8.468;2023-07-30T02:03:19;2.23;;;1.60;;
11111;SDS011;5609;49.466;8.468;2023-07-30T02:05:46;1.93;;;1.60;;
11111;SDS011;5609;49.466;8.468;2023-07-30T02:08:13;2.60;;;1.50;;
11111;SDS011;5609;49.466;8.468;2023-07-30T02:10:41;1.80;;;1.70;;
11111;SDS011;5609;49.466;8.468;2023-07-30T02:13:09;1.90;;;1.53;;
11111;SDS011;5609;49.466;8.468;2023-07-30T02:15:39;3.80;;;1.83;;
11111;SDS011;5609;49.466;8.468;2023-07-30T02:18:06;1.73;;;1.50;;
11111;SDS011;5609;49.466;8.468;2023-07-30T02:20:35;1.90;;;1.60;;
11111;SDS011;5609;49.466;8.468;2023-07-30T02:23:02;2.73;;;1.80;;
11111;SDS011;5609;49.466;8.468;2023-07-30T02:25:29;1.60;;;1.50;;
11111;SDS011;5609;49.466;8.468;2023-07-30T02:27:56;4.63;;;2.23;;
11111;SDS011;5609;49.466;8.468;2023-07-30T02:30:24;2.27;;;1.60;;
11111;SDS011;5609;49.466;8.468;2023-07-30T02:32:51;1.73;;;1.63;;
11111;SDS011;5609;49.466;8.468;2023-07-30T02:35:18;2.30;;;1.50;;
11111;SDS011;5609;49.466;8.468;2023-07-30T02:37:45;5.47;;;1.90;;
11111;SDS011;5609;49.466;8.468;2023-07-30T02:40:12;2.60;;;1.70;;
11111;SDS011;5609;49.466;8.468;2023-07-30T02:42:39;1.50;;;1.40;;
11111;SDS011;5609;49.466;8.468;2023-07-30T02:45:06;1.80;;;1.70;;
11111;SDS011;5609;49.466;8.468;2023-07-30T02:47:34;1.73;;;1.63;;
11111;SDS011;5609;49.466;8.468;2023-07-30T02:50:01;2.67;;;1.60;;
11111;SDS011;5609;49.466;8.468;2023-07-30T02:52:28;1.70;;;1.60;;
11111;SDS011;5609;49.466;8.468;2023-07-30T02:54:55;1.70;;;1.60;;
11111;SDS011;5609;49.466;8.468;2023-07-30T02:57:22;2.13;;;1.70;;
11111;SDS011;5609;49.466;8.468;2023-07-30T02:59:49;2.23;;;1.60;;
11111;SDS011;5609;49.466;8.468;2023-07-30T03:02:16;2.77;;;1.80;;
11111;SDS011;5609;49.466;8.468;2023-07-30T03:04:45;5.37;;;1.80;;
11111;SDS011;5609;49.466;8.468;2023-07-30T03:07:12;3.13;;;1.67;;
11111;SDS011;5609;49.466;8.468;2023-07-30T03:09:39;2.43;;;1.77;;
11111;SDS011;5609;49.466;8.468;2023-07-30T03:12:07;2.30;;;1.60;;
11111;SDS011;5609;49.466;8.468;2023-07-30T03:14:34;1.80;;;1.63;;
11111;SDS011;5609;49.466;8.468;2023-07-30T03:17:01;1.93;;;1.73;;
11111;SDS011;5609;49.466;8.468;2023-07-30T03:19:29;2.23;;;1.63;;
11111;SDS011;5609;49.466;8.468;2023-07-30T03:21:58;2.10;;;1.70;;
11111;SDS011;5609;49.466;8.468;2023-07-30T03:24:25;3.93;;;1.87;;
11111;SDS011;5609;49.466;8.468;2023-07-30T03:26:52;1.83;;;1.73;;
11111;SDS011;5609;49.466;8.468;2023-07-30T03:29:19;2.23;;;2.03;;
11111;SDS011;5609;49.466;8.468;2023-07-30T03:31:46;3.00;;;2.10;;
11111;SDS011;5609;49.466;8.468;2023-07-30T03:34:13;3.27;;;2.07;;
11111;SDS011;5609;49.466;8.468;2023-07-30T03:36:40;3.00;;;1.80;;
11111;SDS011;5609;49.466;8.468;2023-07-30T03:39:08;3.10;;;2.03;;
11111;SDS011;5609;49.466;8.468;2023-07-30T03:41:35;2.03;;;1.83;;
11111;SDS011;5609;49.466;8.468;2023-07-30T03:44:02;2.37;;;2.17;;
11111;SDS011;5609;49.466;8.468;2023-07-30T03:46:29;2.80;;;2.00;;
11111;SDS011;5609;49.466;8.468;2023-07-30T03:48:56;2.13;;;1.93;;
11111;SDS011;5609;49.466;8.468;2023-07-30T03:51:23;2.17;;;1.97;;
11111;SDS011;5609;49.466;8.468;2023-07-30T03:53:50;2.47;;;1.80;;
11111;SDS011;5609;49.466;8.468;2023-07-30T03:56:19;2.43;;;2.07;;
11111;SDS011;5609;49.466;8.468;2023-07-30T03:58:46;3.17;;;2.10;;
11111;SDS011;5609;49.466;8.468;2023-07-30T04:01:13;2.90;;;1.80;;
11111;SDS011;5609;49.466;8.468;2023-07-30T04:03:40;2.43;;;1.90;;
11111;SDS011;5609;49.466;8.468;2023-07-30T04:06:07;4.03;;;1.90;;
11111;SDS011;5609;49.466;8.468;2023-07-30T04:08:33;3.53;;;2.00;;
11111;SDS011;5609;49.466;8.468;2023-07-30T04:11:00;4.70;;;2.10;;
11111;SDS011;5609;49.466;8.468;2023-07-30T04:13:29;1.80;;;1.70;;
11111;SDS011;5609;49.466;8.468;2023-07-30T04:15:56;2.70;;;2.03;;
11111;SDS011;5609;49.466;8.468;2023-07-30T04:18:23;2.17;;;1.80;;
11111;SDS011;5609;49.466;8.468;2023-07-30T04:20:50;3.00;;;1.80;;
11111;SDS011;5609;49.466;8.468;2023-07-30T04:23:17;2.87;;;2.10;;
11111;SDS011;5609;49.466;8.468;2023-07-30T04:25:44;2.97;;;2.10;;
11111;SDS011;5609;49.466;8.468;2023-07-30T04:28:11;2.07;;;1.90;;
11111;SDS011;5609;49.466;8.468;2023-07-30T04:30:39;3.47;;;2.30;;
11111;SDS011;5609;49.466;8.468;2023-07-30T04:33:06;2.63;;;2.20;;
11111;SDS011;5609;49.466;8.468;2023-07-30T04:35:33;2.83;;;2.20;;
11111;SDS011;5609;49.466;8.468;2023-07-30T04:38:00;2.73;;;2.20;;
11111;SDS011;5609;49.466;8.468;2023-07-30T04:40:27;2.50;;;2.30;;
11111;SDS011;5609;49.466;8.468;2023-07-30T04:42:54;2.87;;;2.20;;
11111;SDS011;5609;49.466;8.468;2023-07-30T04:45:21;2.70;;;2.37;;
11111;SDS011;5609;49.466;8.468;2023-07-30T04:47:49;3.13;;;2.30;;
11111;SDS011;5609;49.466;8.468;2023-07-30T04:50:16;3.30;;;2.50;;
11111;SDS011;5609;49.466;8.468;2023-07-30T04:52:43;2.80;;;2.60;;
11111;SDS011;5609;49.466;8.468;2023-07-30T04:55:10;2.57;;;2.37;;
11111;SDS011;5609;49.466;8.468;2023-07-30T04:57:37;3.17;;;2.67;;
11111;SDS011;5609;49.466;8.468;2023-07-30T05:00:05;2.67;;;2.40;;
11111;SDS011;5609;49.466;8.468;2023-07-30T05:02:32;4.27;;;2.70;;
11111;SDS011;5609;49.466;8.468;2023-07-30T05:05:01;2.70;;;2.50;;
11111;SDS011;5609;49.466;8.468;2023-07-30T05:07:28;3.27;;;2.60;;
11111;SDS011;5609;49.466;8.468;2023-07-30T05:09:55;4.17;;;2.60;;
11111;SDS011;5609;49.466;8.468;2023-07-30T05:12:22;2.70;;;2.27;;
11111;SDS011;5609;49.466;8.468;2023-07-30T05:14:49;2.83;;;2.63;;
11111;SDS011;5609;49.466;8.468;2023-07-30T05:17:16;2.80;;;2.60;;
11111;SDS011;5609;49.466;8.468;2023-07-30T05:19:43;3.00;;;2.70;;
11111;SDS011;5609;49.466;8.468;2023-07-30T05:22:11;3.53;;;2.60;;
11111;SDS011;5609;49.466;8.468;2023-07-30T05:24:38;2.97;;;2.77;;
11111;SDS011;5609;49.466;8.468;2023-07-30T05:27:05;3.43;;;2.60;;
11111;SDS011;5609;49.466;8.468;2023-07-30T05:29:32;3.17;;;2.87;;
11111;SDS011;5609;49.466;8.468;2023-07-30T05:31:59;2.80;;;2.60;;
11111;SDS011;5609;49.466;8.468;2023-07-30T05:34:26;2.87;;;2.50;;
11111;SDS011;5609;49.466;8.468;2023-07-30T05:36:53;3.80;;;2.80;;
11111;SDS011;5609;49.466;8.468;2023-07-30T05:39:21;2.90;;;2.70;;
11111;SDS011;5609;49.466;8.468;2023-07-30T05:41:48;3.47;;;2.90;;
11111;SDS011;5609;49.466;8.468;2023-07-30T05:44:15;2.80;;;2.60;;
11111;SDS011;5609;49.466;8.468;2023-07-30T05:46:42;3.07;;;2.60;;
11111;SDS011;5609;49.466;8.468;2023-07-30T05:49:09;2.70;;;2.50;;
11111;SDS011;5609;49.466;8.468;2023-07-30T05:51:36;3.00;;;2.50;;
11111;SDS011;5609;49.466;8.468;2023-07-30T05:54:03;2.90;;;2.63;;
11111;SDS011;5609;49.466;8.468;2023-07-30T05:56:32;3.10;;;2.80;;
11111;SDS011;5609;49.466;8.468;2023-07-30T05:58:59;3.30;;;2.50;;
11111;SDS011;5609;49.466;8.468;2023-07-30T06:01:26;2.77;;;2.50;;
11111;SDS011;5609;49.466;8.468;2023-07-30T06:03:53;4.00;;;2.80;;
11111;SDS011;5609;49.466;8.468;2023-07-30T06:06:20;4.37;;;2.80;;
11111;SDS011;5609;49.466;8.468;2023-07-30T06:08:52;2.80;;;2.50;;
11111;SDS011;5609;49.466;8.468;2023-07-30T06:11:19;4.27;;;2.70;;
11111;SDS011;5609;49.466;8.468;2023-07-30T06:13:47;3.07;;;2.70;;
11111;SDS011;5609;49.466;8.468;2023-07-30T06:16:14;3.77;;;2.90;;
11111;SDS011;5609;49.466;8.468;2023-07-30T06:18:41;3.13;;;2.70;;
11111;SDS011;5609;49.466;8.468;2023-07-30T06:21:08;3.60;;;3.30;;
11111;SDS011;5609;49.466;8.468;2023-07-30T06:23:35;4.37;;;3.97;;
11111;SDS011;5609;49.466;8.468;2023-07-30T06:26:02;5.00;;;3.10;;
11111;SDS011;5609;49.466;8.468;2023-07-30T06:28:29;3.97;;;3.07;;
11111;SDS011;5609;49.466;8.468;2023-07-30T06:31:00;3.83;;;2.90;;
11111;SDS011;5609;49.466;8.468;2023-07-30T06:33:27;3.97;;;3.50;;
11111;SDS011;5609;49.466;8.468;2023-07-30T06:35:54;4.17;;;3.20;;
11111;SDS011;5609;49.466;8.468;2023-07-30T06:38:21;4.10;;;3.20;;
11111;SDS011;5609;49.466;8.468;2023-07-30T06:40:48;4.83;;;3.40;;
11111;SDS011;5609;49.466;8.468;2023-07-30T06:43:15;3.93;;;3.07;;
11111;SDS011;5609;49.466;8.468;2023-07-30T06:45:42;3.37;;;3.10;;
11111;SDS011;5609;49.466;8.468;2023-07-30T06:48:10;3.33;;;3.10;;
11111;SDS011;5609;49.466;8.468;2023-07-30T06:50:37;3.30;;;3.00;;
11111;SDS011;5609;49.466;8.468;2023-07-30T06:53:04;3.20;;;3.00;;
11111;SDS011;5609;49.466;8.468;2023-07-30T06:55:31;3.40;;;3.10;;
11111;SDS011;5609;49.466;8.468;2023-07-30T06:57:58;3.90;;;3.07;;
11111;SDS011;5609;49.466;8.468;2023-07-30T07:00:25;3.97;;;3.23;;
11111;SDS011;5609;49.466;8.468;2023-07-30T07:02:52;4.03;;;3.10;;
11111;SDS011;5609;49.466;8.468;2023-07-30T07:05:21;4.53;;;2.90;;
11111;SDS011;5609;49.466;8.468;2023-07-30T07:07:48;3.07;;;2.87;;
11111;SDS011;5609;49.466;8.468;2023-07-30T07:10:15;3.17;;;2.87;;
11111;SDS011;5609;49.466;8.468;2023-07-30T07:12:42;3.17;;;2.73;;
11111;SDS011;5609;49.466;8.468;2023-07-30T07:15:09;3.63;;;2.73;;
11111;SDS011;5609;49.466;8.468;2023-07-30T07:17:37;4.03;;;3.07;;
11111;SDS011;5609;49.466;8.468;2023-07-30T07:20:05;3.37;;;3.07;;
11111;SDS011;5609;49.466;8.468;2023-07-30T07:22:33;3.53;;;3.10;;
11111;SDS011;5609;49.466;8.468;2023-07-30T07:25:00;4.33;;;2.97;;
11111;SDS011;5609;49.466;8.468;2023-07-30T07:27:27;3.30;;;3.00;;
11111;SDS011;5609;49.466;8.468;2023-07-30T07:29:54;3.43;;;3.13;;
11111;SDS011;5609;49.466;8.468;2023-07-30T07:32:21;5.17;;;3.67;;
11111;SDS011;5609;49.466;8.468;2023-07-30T07:34:49;3.80;;;3.50;;
11111;SDS011;5609;49.466;8.468;2023-07-30T07:37:16;3.60;;;3.30;;
11111;SDS011;5609;49.466;8.468;2023-07-30T07:39:45;3.70;;;3.40;;
11111;SDS011;5609;49.466;8.468;2023-07-30T07:42:12;3.80;;;3.40;;
11111;SDS011;5609;49.466;8.468;2023-07-30T07:44:39;3.67;;;3.30;;
11111;SDS011;5609;49.466;8.468;2023-07-30T07:47:07;3.50;;;3.20;;
11111;SDS011;5609;49.466;8.468;2023-07-30T07:49:34;3.80;;;3.40;;
11111;SDS011;5609;49.466;8.468;2023-07-30T07:52:01;4.93;;;3.10;;
11111;SDS011;5609;49.466;8.468;2023-07-30T07:54:28;3.27;;;2.97;;
11111;SDS011;5609;49.466;8.468;2023-07-30T07:56:56;3.10;;;2.80;;
11111;SDS011;5609;49.466;8.468;2023-07-30T07:59:23;2.87;;;2.67;;
11111;SDS011;5609;49.466;8.468;2023-07-30T08:01:50;3.90;;;2.47;;
11111;SDS011;5609;49.466;8.468;2023-07-30T08:04:17;3.00;;;2.80;;
11111;SDS011;5609;49.466;8.468;2023-07-30T08:06:46;4.80;;;2.60;;
11111;SDS011;5609;49.466;8.468;2023-07-30T08:09:13;6.50;;;2.60;;
11111;SDS011;5609;49.466;8.468;2023-07-30T08:11:40;2.67;;;2.20;;
11111;SDS011;5609;49.466;8.468;2023-07-30T08:14:09;2.60;;;2.40;;
11111;SDS011;5609;49.466;8.468;2023-07-30T08:16:36;2.70;;;2.50;;
11111;SDS011;5609;49.466;8.468;2023-07-30T08:19:03;2.67;;;2.43;;
11111;SDS011;5609;49.466;8.468;2023-07-30T08:21:30;2.53;;;2.30;;
11111;SDS011;5609;49.466;8.468;2023-07-30T08:23:57;2.50;;;2.30;;
11111;SDS011;5609;49.466;8.468;2023-07-30T08:26:24;3.87;;;2.40;;
11111;SDS011;5609;49.466;8.468;2023-07-30T08:28:51;2.03;;;1.90;;
11111;SDS011;5609;49.466;8.468;2023-07-30T08:31:19;3.10;;;1.77;;
11111;SDS011;5609;49.466;8.468;2023-07-30T08:33:46;3.07;;;2.20;;
11111;SDS011;5609;49.466;8.468;2023-07-30T08:36:13;2.83;;;2.00;;
11111;SDS011;5609;49.466;8.468;2023-07-30T08:38:40;3.83;;;2.07;;
11111;SDS011;5609;49.466;8.468;2023-07-30T08:41:07;2.93;;;1.80;;
11111;SDS011;5609;49.466;8.468;2023-07-30T08:43:34;2.10;;;1.90;;
11111;SDS011;5609;49.466;8.468;2023-07-30T08:46:01;2.20;;;1.80;;
11111;SDS011;5609;49.466;8.468;2023-07-30T08:48:30;2.00;;;1.80;;
11111;SDS011;5609;49.466;8.468;2023-07-30T08:50:57;2.50;;;1.93;;
11111;SDS011;5609;49.466;8.468;2023-07-30T08:53:24;2.60;;;1.83;;
11111;SDS011;5609;49.466;8.468;2023-07-30T08:55:52;2.10;;;1.67;;
11111;SDS011;5609;49.466;8.468;2023-07-30T08:58:20;2.20;;;1.70;;
11111;SDS011;5609;49.466;8.468;2023-07-30T09:00:48;2.43;;;1.60;;
11111;SDS011;5609;49.466;8.468;2023-07-30T09:03:16;1.70;;;1.60;;
11111;SDS011;5609;49.466;8.468;2023-07-30T09:05:45;3.00;;;1.73;;
11111;SDS011;5609;49.466;8.468;2023-07-30T09:08:12;2.70;;;1.90;;
11111;SDS011;5609;49.466;8.468;2023-07-30T09:10:39;2.20;;;2.00;;
11111;SDS011;5609;49.466;8.468;2023-07-30T09:13:06;1.90;;;1.70;;
11111;SDS011;5609;49.466;8.468;2023-07-30T09:15:33;3.23;;;1.70;;
11111;SDS011;5609;49.466;8.468;2023-07-30T09:18:02;2.27;;;1.87;;
11111;SDS011;5609;49.466;8.468;2023-07-30T09:20:36;2.13;;;1.83;;
11111;SDS011;5609;49.466;8.468;2023-07-30T09:23:05;3.13;;;2.03;;
11111;SDS011;5609;49.466;8.468;2023-07-30T09:25:32;3.63;;;1.87;;
11111;SDS011;5609;49.466;8.468;2023-07-30T09:27:59;2.20;;;1.80;;
11111;SDS011;5609;49.466;8.468;2023-07-30T09:30:26;4.33;;;1.90;;
11111;SDS011;5609;49.466;8.468;2023-07-30T09:32:54;2.70;;;1.77;;
11111;SDS011;5609;49.466;8.468;2023-07-30T09:35:21;2.10;;;1.90;;
11111;SDS011;5609;49.466;8.468;2023-07-30T09:37:49;2.60;;;2.03;;
11111;SDS011;5609;49.466;8.468;2023-07-30T09:40:18;2.77;;;2.00;;
11111;SDS011;5609;49.466;8.468;2023-07-30T09:42:46;2.43;;;2.10;;
11111;SDS011;5609;49.466;8.468;2023-07-30T09:45:16;4.43;;;2.00;;
11111;SDS011;5609;49.466;8.468;2023-07-30T09:47:47;2.13;;;1.70;;
11111;SDS011;5609;49.466;8.468;2023-07-30T09:50:14;3.03;;;1.70;;
11111;SDS011;5609;49.466;8.468;2023-07-30T09:52:41;2.10;;;1.90;;
11111;SDS011;5609;49.466;8.468;2023-07-30T09:55:08;3.30;;;1.90;;
11111;SDS011;5609;49.466;8.468;2023-07-30T09:57:37;1.90;;;1.70;;
11111;SDS011;5609;49.466;8.468;2023-07-30T10:00:05;2.80;;;1.90;;
11111;SDS011;5609;49.466;8.468;2023-07-30T10:02:35;2.47;;;1.90;;
11111;SDS011;5609;49.466;8.468;2023-07-30T10:05:04;1.80;;;1.60;;
11111;SDS011;5609;49.466;8.468;2023-07-30T10:07:34;1.60;;;1.50;;
11111;SDS011;5609;49.466;8.468;2023-07-30T10:10:01;1.90;;;1.40;;
11111;SDS011;5609;49.466;8.468;2023-07-30T10:12:29;2.27;;;1.60;;
11111;SDS011;5609;49.466;8.468;2023-07-30T10:14:59;1.90;;;1.70;;
11111;SDS011;5609;49.466;8.468;2023-07-30T10:17:27;2.37;;;1.50;;
11111;SDS011;5609;49.466;8.468;2023-07-30T10:19:54;2.20;;;1.50;;
11111;SDS011;5609;49.466;8.468;2023-07-30T10:22:22;2.43;;;1.50;;
11111;SDS011;5609;49.466;8.468;2023-07-30T10:24:56;2.40;;;1.60;;
11111;SDS011;5609;49.466;8.468;2023-07-30T10:27:24;2.30;;;1.47;;
11111;SDS011;5609;49.466;8.468;2023-07-30T10:32:38;2.43;;;1.40;;
11111;SDS011;5609;49.466;8.468;2023-07-30T10:35:05;1.50;;;1.17;;
11111;SDS011;5609;49.466;8.468;2023-07-30T10:37:32;1.50;;;1.30;;
11111;SDS011;5609;49.466;8.468;2023-07-30T10:39:59;1.90;;;1.40;;
11111;SDS011;5609;49.466;8.468;2023-07-30T10:42:32;1.87;;;1.20;;
11111;SDS011;5609;49.466;8.468;2023-07-30T10:45:00;3.10;;;1.40;;
11111;SDS011;5609;49.466;8.468;2023-07-30T10:47:27;2.33;;;1.27;;
11111;SDS011;5609;49.466;8.468;2023-07-30T10:49:59;3.10;;;1.30;;
11111;SDS011;5609;49.466;8.468;2023-07-30T10:52:27;1.97;;;1.20;;
11111;SDS011;5609;49.466;8.468;2023-07-30T10:54:59;1.37;;;1.27;;
11111;SDS011;5609;49.466;8.468;2023-07-30T10:57:29;1.63;;;1.20;;
11111;SDS011;5609;49.466;8.468;2023-07-30T10:59:56;1.70;;;1.07;;
11111;SDS011;5609;49.466;8.468;2023-07-30T11:02:23;2.50;;;1.10;;
11111;SDS011;5609;49.466;8.468;2023-07-30T11:04:50;2.57;;;1.30;;
11111;SDS011;5609;49.466;8.468;2023-07-30T11:07:19;2.57;;;1.10;;
11111;SDS011;5609;49.466;8.468;2023-07-30T11:09:46;2.97;;;1.30;;
11111;SDS011;5609;49.466;8.468;2023-07-30T11:12:25;1.20;;;1.10;;
11111;SDS011;5609;49.466;8.468;2023-07-30T11:14:59;1.70;;;1.30;;
11111;SDS011;5609;49.466;8.468;2023-07-30T11:17:26;1.67;;;1.27;;
11111;SDS011;5609;49.466;8.468;2023-07-30T11:19:53;3.13;;;1.40;;
11111;SDS011;5609;49.466;8.468;2023-07-30T11:22:29;1.57;;;1.40;;
11111;SDS011;5609;49.466;8.468;2023-07-30T11:24:57;2.37;;;1.60;;
11111;SDS011;5609;49.466;8.468;2023-07-30T11:27:26;4.10;;;1.30;;
11111;SDS011;5609;49.466;8.468;2023-07-30T11:29:53;4.23;;;1.80;;
11111;SDS011;5609;49.466;8.468;2023-07-30T11:32:21;2.97;;;1.50;;
11111;SDS011;5609;49.466;8.468;2023-07-30T11:34:50;2.87;;;1.60;;
11111;SDS011;5609;49.466;8.468;2023-07-30T11:37:17;1.53;;;1.40;;
11111;SDS011;5609;49.466;8.468;2023-07-30T11:39:45;2.33;;;1.50;;
11111;SDS011;5609;49.466;8.468;2023-07-30T11:42:12;2.70;;;1.50;;
11111;SDS011;5609;49.466;8.468;2023-07-30T11:44:39;2.77;;;1.43;;
11111;SDS011;5609;49.466;8.468;2023-07-30T11:47:07;2.73;;;1.40;;
11111;SDS011;5609;49.466;8.468;2023-07-30T11:49:35;1.90;;;1.33;;
11111;SDS011;5609;49.466;8.468;2023-07-30T11:52:05;2.90;;;1.57;;
11111;SDS011;5609;49.466;8.468;2023-07-30T11:54:33;4.43;;;1.67;;
11111;SDS011;5609;49.466;8.468;2023-07-30T11:57:02;2.77;;;1.53;;
11111;SDS011;5609;49.466;8.468;2023-07-30T11:59:30;4.03;;;1.60;;
11111;SDS011;5609;49.466;8.468;2023-07-30T12:01:57;2.93;;;1.60;;
11111;SDS011;5609;49.466;8.468;2023-07-30T12:04:24;2.77;;;1.50;;
11111;SDS011;5609;49.466;8.468;2023-07-30T12:06:52;2.80;;;1.70;;
11111;SDS011;5609;49.466;8.468;2023-07-30T12:09:20;3.83;;;1.73;;
11111;SDS011;5609;49.466;8.468;2023-07-30T12:11:48;3.00;;;1.40;;
11111;SDS011;5609;49.466;8.468;2023-07-30T12:14:17;2.63;;;1.53;;
11111;SDS011;5609;49.466;8.468;2023-07-30T12:16:44;2.50;;;1.40;;
11111;SDS011;5609;49.466;8.468;2023-07-30T12:19:11;3.77;;;1.53;;
11111;SDS011;5609;49.466;8.468;2023-07-30T12:21:38;4.70;;;1.93;;
11111;SDS011;5609;49.466;8.468;2023-07-30T12:24:06;2.30;;;1.30;;
11111;SDS011;5609;49.466;8.468;2023-07-30T12:26:33;2.73;;;1.70;;
11111;SDS011;5609;49.466;8.468;2023-07-30T12:29:00;2.83;;;1.47;;
11111;SDS011;5609;49.466;8.468;2023-07-30T12:31:28;5.30;;;1.90;;
11111;SDS011;5609;49.466;8.468;2023-07-30T12:33:55;4.23;;;1.60;;
11111;SDS011;5609;49.466;8.468;2023-07-30T12:36:22;2.90;;;1.60;;
11111;SDS011;5609;49.466;8.468;2023-07-30T12:38:49;2.20;;;1.57;;
11111;SDS011;5609;49.466;8.468;2023-07-30T12:41:17;3.53;;;1.53;;
11111;SDS011;5609;49.466;8.468;2023-07-30T12:43:50;4.00;;;1.70;;
11111;SDS011;5609;49.466;8.468;2023-07-30T12:46:17;3.13;;;1.73;;
11111;SDS011;5609;49.466;8.468;2023-07-30T12:48:45;2.87;;;1.50;;
11111;SDS011;5609;49.466;8.468;2023-07-30T12:51:12;4.13;;;1.70;;
11111;SDS011;5609;49.466;8.468;2023-07-30T12:53:39;2.47;;;1.60;;
11111;SDS011;5609;49.466;8.468;2023-07-30T12:56:06;2.73;;;1.60;;
11111;SDS011;5609;49.466;8.468;2023-07-30T12:58:34;5.03;;;2.00;;
11111;SDS011;5609;49.466;8.468;2023-07-30T13:01:02;3.03;;;1.60;;
11111;SDS011;5609;49.466;8.468;2023-07-30T13:03:29;2.63;;;1.50;;
11111;SDS011;5609;49.466;8.468;2023-07-30T13:05:57;2.80;;;1.50;;
11111;SDS011;5609;49.466;8.468;2023-07-30T13:08:24;3.30;;;1.30;;
11111;SDS011;5609;49.466;8.468;2023-07-30T13:10:51;4.77;;;1.80;;
11111;SDS011;5609;49.466;8.468;2023-07-30T13:13:18;2.60;;;1.73;;
11111;SDS011;5609;49.466;8.468;2023-07-30T13:15:45;2.50;;;1.60;;
11111;SDS011;5609;49.466;8.468;2023-07-30T13:18:12;2.60;;;1.70;;
11111;SDS011;5609;49.466;8.468;2023-07-30T13:20:39;3.70;;;1.60;;
11111;SDS011;5609;49.466;8.468;2023-07-30T13:23:08;2.43;;;1.63;;
11111;SDS011;5609;49.466;8.468;2023-07-30T13:25:35;2.80;;;1.80;;
11111;SDS011;5609;49.466;8.468;2023-07-30T13:28:02;3.57;;;1.60;;
11111;SDS011;5609;49.466;8.468;2023-07-30T13:30:29;2.63;;;1.53;;
11111;SDS011;5609;49.466;8.468;2023-07-30T13:32:56;2.93;;;1.60;;
11111;SDS011;5609;49.466;8.468;2023-07-30T13:35:23;3.47;;;1.60;;
11111;SDS011;5609;49.466;8.468;2023-07-30T13:37:50;5.03;;;1.70;;
11111;SDS011;5609;49.466;8.468;2023-07-30T13:40:19;2.53;;;1.50;;
11111;SDS011;5609;49.466;8.468;2023-07-30T13:42:46;3.30;;;1.57;;
11111;SDS011;5609;49.466;8.468;2023-07-30T13:45:13;3.77;;;1.57;;
11111;SDS011;5609;49.466;8.468;2023-07-30T13:47:40;3.47;;;1.70;;
11111;SDS011;5609;49.466;8.468;2023-07-30T13:50:07;3.37;;;1.57;;
11111;SDS011;5609;49.466;8.468;2023-07-30T13:52:35;3.20;;;1.67;;
11111;SDS011;5609;49.466;8.468;2023-07-30T13:55:02;3.40;;;1.80;;
11111;SDS011;5609;49.466;8.468;2023-07-30T13:57:30;3.53;;;1.50;;
11111;SDS011;5609;49.466;8.468;2023-07-30T13:59:57;3.40;;;1.53;;
11111;SDS011;5609;49.466;8.468;2023-07-30T14:02:24;2.73;;;1.70;;
11111;SDS011;5609;49.466;8.468;2023-07-30T14:04:52;4.07;;;1.70;;
11111;SDS011;5609;49.466;8.468;2023-07-30T14:07:19;3.07;;;1.67;;
11111;SDS011;5609;49.466;8.468;2023-07-30T14:09:46;2.60;;;1.50;;
11111;SDS011;5609;49.466;8.468;2023-07-30T14:12:13;2.53;;;1.50;;
11111;SDS011;5609;49.466;8.468;2023-07-30T14:14:42;3.00;;;1.63;;
11111;SDS011;5609;49.466;8.468;2023-07-30T14:17:09;2.87;;;1.60;;
11111;SDS011;5609;49.466;8.468;2023-07-30T14:19:36;2.73;;;1.40;;
11111;SDS011;5609;49.466;8.468;2023-07-30T14:22:04;3.33;;;1.57;;
11111;SDS011;5609;49.466;8.468;2023-07-30T14:24:31;3.20;;;1.50;;
11111;SDS011;5609;49.466;8.468;2023-07-30T14:26:58;3.07;;;1.40;;
11111;SDS011;5609;49.466;8.468;2023-07-30T14:29:25;3.60;;;1.57;;
11111;SDS011;5609;49.466;8.468;2023-07-30T14:31:54;3.10;;;1.60;;
11111;SDS011;5609;49.466;8.468;2023-07-30T14:34:21;2.57;;;1.40;;
11111;SDS011;5609;49.466;8.468;2023-07-30T14:36:48;2.60;;;1.47;;
11111;SDS011;5609;49.466;8.468;2023-07-30T14:39:15;2.43;;;1.40;;
11111;SDS011;5609;49.466;8.468;2023-07-30T14:41:42;2.63;;;1.37;;
11111;SDS011;5609;49.466;8.468;2023-07-30T14:44:09;2.67;;;1.60;;
11111;SDS011;5609;49.466;8.468;2023-07-30T14:46:36;3.10;;;1.43;;
11111;SDS011;5609;49.466;8.468;2023-07-30T14:49:04;3.50;;;1.50;;
11111;SDS011;5609;49.466;8.468;2023-07-30T14:51:31;3.50;;;1.73;;
11111;SDS011;5609;49.466;8.468;2023-07-30T14:53:58;2.50;;;1.40;;
11111;SDS011;5609;49.466;8.468;2023-07-30T14:56:25;3.13;;;1.67;;
11111;SDS011;5609;49.466;8.468;2023-07-30T14:58:52;2.10;;;1.50;;
11111;SDS011;5609;49.466;8.468;2023-07-30T15:01:21;2.73;;;1.47;;
11111;SDS011;5609;49.466;8.468;2023-07-30T15:03:48;3.33;;;1.57;;